createdAt,value
2023-04-08T00:01:22.044Z,10.90
2023-04-08T00:06:20.269Z,11.50
2023-04-08T00:11:18.313Z,10.63
2023-04-08T00:16:18.142Z,12.67
2023-04-08T00:21:18.092Z,12.27
2023-04-08T00:26:16.805Z,12.53
2023-04-08T00:31:15.817Z,14.00
2023-04-08T00:36:15.526Z,14.13
2023-04-08T00:41:14.084Z,14.37
2023-04-08T00:46:12.790Z,14.17
2023-04-08T00:51:11.280Z,15.30
2023-04-08T00:56:11.822Z,15.03
2023-04-08T01:01:19.771Z,16.07
2023-04-08T01:06:24.851Z,15.97
2023-04-08T01:11:24.846Z,18.10
2023-04-08T01:16:25.616Z,19.47
2023-04-08T01:21:24.853Z,19.07
2023-04-08T01:26:26.954Z,19.10
2023-04-08T01:31:26.545Z,17.60
2023-04-08T01:36:26.361Z,19.50
2023-04-08T01:41:26.224Z,18.97
2023-04-08T01:46:24.573Z,19.50
2023-04-08T01:51:24.359Z,20.60
2023-04-08T01:56:26.888Z,20.70
2023-04-08T02:01:28.464Z,18.23
2023-04-08T02:06:29.436Z,19.30
2023-04-08T02:11:29.578Z,19.90
2023-04-08T02:16:35.319Z,19.40
2023-04-08T02:21:38.559Z,20.57
2023-04-08T02:26:40.078Z,20.13
2023-04-08T02:31:40.926Z,19.33
2023-04-08T02:36:41.177Z,23.33
2023-04-08T02:41:40.736Z,21.17
2023-04-08T02:46:38.931Z,20.97
2023-04-08T02:51:37.493Z,20.80
2023-04-08T02:56:35.565Z,19.30
2023-04-08T03:01:35.421Z,20.70
2023-04-08T03:06:33.772Z,20.50
2023-04-08T03:11:31.942Z,21.50
2023-04-08T03:16:30.146Z,19.90
2023-04-08T03:21:31.860Z,21.57
2023-04-08T03:26:29.876Z,20.40
2023-04-08T03:31:47.004Z,19.80
2023-04-08T03:36:46.784Z,21.60
2023-04-08T03:41:45.104Z,22.83
2023-04-08T03:46:43.150Z,20.70
2023-04-08T03:51:41.774Z,23.40
2023-04-08T03:56:41.305Z,22.77
2023-04-08T04:01:41.708Z,21.43
2023-04-08T04:06:40.166Z,22.03
2023-04-08T04:11:38.403Z,23.40
2023-04-08T04:16:38.129Z,22.97
2023-04-08T04:21:36.317Z,24.70
2023-04-08T04:26:34.567Z,23.57
2023-04-08T04:31:32.899Z,23.90
2023-04-08T04:36:32.575Z,24.27
2023-04-08T04:41:30.866Z,24.63
2023-04-08T04:46:29.095Z,23.03
2023-04-08T04:51:27.818Z,23.57
2023-04-08T04:56:27.932Z,23.57
2023-04-08T05:01:26.242Z,22.33
2023-04-08T05:06:25.160Z,24.27
2023-04-08T05:11:23.356Z,24.87
2023-04-08T05:16:23.196Z,24.97
2023-04-08T05:21:21.222Z,23.77
2023-04-08T05:26:20.358Z,25.73
2023-04-08T05:31:18.724Z,24.90
2023-04-08T05:36:18.293Z,24.83
2023-04-08T05:41:16.682Z,23.33
2023-04-08T05:46:14.771Z,21.80
2023-04-08T05:51:15.562Z,25.33
2023-04-08T05:56:15.148Z,25.70
2023-04-08T06:01:13.388Z,24.47
2023-04-08T06:06:12.674Z,24.70
2023-04-08T06:11:11.959Z,24.40
2023-04-08T06:16:19.609Z,22.90
2023-04-08T06:21:19.232Z,22.93
2023-04-08T06:26:18.404Z,23.17
2023-04-08T06:31:18.105Z,24.87
2023-04-08T06:36:16.461Z,24.07
2023-04-08T06:41:14.644Z,23.30
2023-04-08T06:46:12.962Z,24.73
2023-04-08T06:51:12.551Z,24.30
2023-04-08T06:56:11.118Z,24.30
2023-04-08T07:01:09.468Z,23.07
2023-04-08T07:06:07.842Z,27.00
2023-04-08T07:11:07.891Z,24.30
2023-04-08T07:16:07.299Z,24.20
2023-04-08T07:21:05.551Z,25.17
2023-04-08T07:26:04.940Z,23.43
2023-04-08T07:31:15.273Z,24.60
2023-04-08T07:36:14.448Z,24.23
2023-04-08T07:41:12.618Z,25.40
2023-04-08T07:46:10.984Z,23.60
2023-04-08T07:51:11.810Z,24.63
2023-04-08T07:56:14.242Z,24.10
2023-04-08T08:01:20.073Z,23.37
2023-04-08T08:06:19.937Z,24.57
2023-04-08T08:11:18.199Z,23.90
2023-04-08T08:16:16.560Z,24.47
2023-04-08T08:21:15.390Z,22.70
2023-04-08T08:26:14.971Z,22.53
2023-04-08T08:31:13.567Z,21.77
2023-04-08T08:36:11.956Z,23.23
2023-04-08T08:41:10.176Z,23.60
2023-04-08T08:46:12.559Z,23.70
2023-04-08T08:51:11.118Z,21.20
2023-04-08T08:56:17.372Z,22.60
2023-04-08T09:01:38.701Z,21.87
2023-04-08T09:06:37.509Z,23.80
2023-04-08T09:11:35.686Z,22.57
2023-04-08T09:16:34.061Z,22.07
2023-04-08T09:21:35.251Z,21.50
2023-04-08T09:26:33.484Z,21.70
2023-04-08T09:31:32.942Z,21.33
2023-04-08T09:36:31.244Z,20.90
2023-04-08T09:41:33.897Z,20.83
2023-04-08T09:46:38.158Z,21.37
2023-04-08T09:51:41.887Z,21.67
2023-04-08T09:56:48.998Z,21.90
2023-04-08T10:01:53.509Z,22.70
2023-04-08T10:06:58.615Z,21.80
2023-04-08T10:11:58.109Z,21.63
2023-04-08T10:17:25.788Z,22.07
2023-04-08T10:22:48.924Z,18.70
2023-04-08T10:27:48.814Z,16.53
2023-04-08T10:32:47.209Z,16.13
2023-04-08T10:37:45.896Z,16.53
2023-04-08T10:42:44.191Z,18.70
2023-04-08T10:47:43.617Z,19.30
2023-04-08T10:52:48.361Z,17.67
2023-04-08T10:57:46.623Z,17.53
2023-04-08T11:02:46.376Z,17.47
2023-04-08T11:07:45.663Z,17.63
2023-04-08T11:12:45.587Z,17.93
2023-04-08T11:17:45.280Z,18.23
2023-04-08T11:22:44.987Z,18.20
2023-04-08T11:27:43.187Z,18.13
2023-04-08T11:32:41.947Z,18.20
2023-04-08T11:37:43.311Z,15.43
2023-04-08T11:42:41.488Z,17.20
2023-04-08T11:47:40.287Z,17.17
2023-04-08T11:52:47.990Z,19.00
2023-04-08T11:57:46.286Z,17.73
2023-04-08T12:02:44.755Z,17.20
2023-04-08T12:07:43.188Z,16.50
2023-04-08T12:12:42.922Z,15.10
2023-04-08T12:17:40.971Z,14.73
2023-04-08T12:22:39.764Z,14.33
2023-04-08T12:27:37.794Z,13.20
2023-04-08T12:32:37.660Z,11.20
2023-04-08T12:37:35.710Z,9.77
2023-04-08T12:42:35.072Z,10.17
2023-04-08T12:47:33.505Z,9.80
2023-04-08T12:52:33.349Z,8.97
2023-04-08T12:57:32.032Z,10.30
2023-04-08T13:02:30.746Z,9.67
2023-04-08T13:07:28.855Z,9.20
2023-04-08T13:12:28.938Z,9.60
2023-04-08T13:17:27.740Z,12.23
2023-04-08T13:22:26.158Z,10.30
2023-04-08T13:27:24.230Z,9.60
2023-04-08T13:32:23.955Z,9.10
2023-04-08T13:37:21.985Z,8.30
2023-04-08T13:42:20.545Z,8.50
2023-04-08T13:47:18.513Z,10.40
2023-04-08T13:52:18.243Z,8.83
2023-04-08T13:57:16.280Z,8.73
2023-04-08T14:02:14.680Z,10.33
2023-04-08T14:07:13.097Z,9.80
2023-04-08T14:12:12.448Z,10.10
2023-04-08T14:17:10.921Z,10.03
2023-04-08T14:22:09.011Z,9.10
2023-04-08T14:27:07.509Z,8.90
2023-04-08T14:32:07.411Z,9.00
2023-04-08T14:37:05.582Z,9.10
2023-04-08T14:42:03.804Z,8.83
2023-04-08T14:47:02.238Z,8.67
2023-04-08T14:52:01.709Z,9.67
2023-04-08T14:57:01.160Z,8.23
2023-04-08T15:01:59.242Z,8.37
2023-04-08T15:06:57.826Z,9.13
2023-04-08T15:11:58.330Z,9.00
2023-04-08T15:16:56.323Z,8.73
2023-04-08T15:21:54.728Z,9.43
2023-04-08T15:26:52.753Z,9.80
2023-04-08T15:31:52.759Z,9.10
2023-04-08T15:36:50.811Z,8.27
2023-04-08T15:41:49.145Z,8.30
2023-04-08T15:46:47.500Z,7.77
2023-04-08T15:51:49.830Z,7.30
2023-04-08T15:56:47.890Z,7.60
2023-04-08T16:01:46.557Z,7.97
2023-04-08T16:06:47.328Z,7.70
2023-04-08T16:11:45.413Z,8.00
2023-04-08T16:16:43.851Z,8.10
2023-04-08T16:21:41.852Z,8.93
2023-04-08T16:26:42.525Z,9.30
2023-04-08T16:31:40.827Z,8.60
2023-04-08T16:36:39.344Z,8.93
2023-04-08T16:41:39.494Z,8.53
2023-04-08T16:46:39.064Z,10.70
2023-04-08T16:51:37.184Z,10.07
2023-04-08T16:56:35.678Z,11.90
2023-04-08T17:01:33.812Z,13.50
2023-04-08T17:06:34.816Z,15.30
2023-04-08T17:11:32.864Z,15.40
2023-04-08T17:16:31.537Z,14.80
2023-04-08T17:21:29.663Z,15.07
2023-04-08T17:26:29.384Z,14.83
2023-04-08T17:31:27.538Z,16.70
2023-04-08T17:36:26.247Z,15.80
2023-04-08T17:41:38.462Z,17.70
2023-04-08T17:46:39.259Z,17.57
2023-04-08T17:51:37.268Z,18.53
2023-04-08T17:56:35.758Z,19.70
2023-04-08T18:01:33.881Z,19.63
2023-04-08T18:06:33.686Z,21.40
2023-04-08T18:11:32.059Z,20.67
2023-04-08T18:16:30.490Z,21.17
2023-04-08T18:21:28.519Z,20.93
2023-04-08T18:26:29.335Z,23.13
2023-04-08T18:31:27.629Z,22.50
2023-04-08T18:36:26.707Z,22.93
2023-04-08T18:41:25.443Z,21.07
2023-04-08T18:46:25.353Z,20.10
2023-04-08T18:51:23.402Z,18.57
2023-04-08T18:56:22.300Z,18.10
2023-04-08T19:01:20.335Z,17.80
2023-04-08T19:06:22.664Z,18.17
2023-04-08T19:11:20.993Z,17.47
2023-04-08T19:16:19.274Z,18.23
2023-04-08T19:21:17.312Z,17.27
2023-04-08T19:26:17.466Z,15.83
2023-04-08T19:31:17.177Z,17.20
2023-04-08T19:36:15.702Z,18.27
2023-04-08T19:41:13.740Z,16.97
2023-04-08T19:46:13.792Z,19.00
2023-04-08T19:51:17.128Z,16.43
2023-04-08T19:56:16.440Z,18.37
2023-04-08T20:01:15.865Z,17.87
2023-04-08T20:06:14.201Z,17.97
2023-04-08T20:11:12.595Z,18.23
2023-04-08T20:16:10.879Z,17.23
2023-04-08T20:21:13.962Z,18.23
2023-04-08T20:26:12.999Z,18.20
2023-04-08T20:31:11.388Z,19.87
2023-04-08T20:36:12.445Z,20.70
2023-04-08T20:41:10.708Z,19.87
2023-04-08T20:46:09.113Z,19.00
2023-04-08T20:51:07.532Z,20.33
2023-04-08T20:56:07.978Z,18.27
2023-04-08T21:01:06.193Z,20.20
2023-04-08T21:06:04.542Z,19.50
2023-04-08T21:11:02.759Z,20.50
2023-04-08T21:16:02.328Z,21.23
2023-04-08T21:21:00.975Z,19.03
2023-04-08T21:25:59.390Z,19.33
2023-04-08T21:31:10.647Z,19.63
2023-04-08T21:36:08.953Z,20.53
2023-04-08T21:41:07.240Z,19.00
2023-04-08T21:46:06.012Z,19.60
2023-04-08T21:51:07.025Z,23.13
2023-04-08T21:56:05.826Z,21.97
2023-04-08T22:01:04.637Z,20.20
2023-04-08T22:06:02.924Z,22.23
2023-04-08T22:11:02.338Z,22.00
2023-04-08T22:16:00.695Z,22.40
2023-04-08T22:20:58.943Z,24.07
2023-04-08T22:25:57.145Z,23.47
2023-04-08T22:30:56.722Z,22.03
2023-04-08T22:35:55.001Z,23.10
2023-04-08T22:40:53.253Z,24.00
2023-04-08T22:45:52.444Z,22.87
2023-04-08T22:50:52.695Z,23.63
2023-04-08T22:55:50.976Z,23.47
2023-04-08T23:00:49.180Z,23.93
2023-04-08T23:05:47.450Z,22.50
2023-04-08T23:10:47.110Z,23.93
2023-04-08T23:15:45.180Z,23.57
2023-04-08T23:20:47.575Z,23.53
2023-04-08T23:25:47.108Z,23.20
2023-04-08T23:30:45.440Z,23.00
2023-04-08T23:35:43.886Z,25.83
2023-04-08T23:40:42.080Z,28.10
2023-04-08T23:45:41.636Z,23.83
2023-04-08T23:50:39.864Z,25.30
2023-04-08T23:55:37.851Z,25.10
